Time;durP1;ratioP1;P1;durP2;ratioP2;P2;SDS_P1;SDS_P2;PMS_P1;PMS_P2;Temp;Humidity;BMP_temperature;BMP_pressure;BME280_temperature;BME280_humidity;BME280_pressure;Samples;Min_cycle;Max_cycle;Signal;HPM_P1;HPM_P2
2023/09/26 00:01:38;;;;;;;8.93;2.67;;;13.40;99.90;;;;;;4848731;29;20109;-78
2023/09/26 00:04:04;;;;;;;16.88;2.85;;;13.50;99.90;;;;;;4852123;29;20042;-78
2023/09/26 00:06:30;;;;;;;12.65;3.00;;;13.50;99.90;;;;;;4884816;29;20554;-78
2023/09/26 00:08:56;;;;;;;11.95;2.92;;;13.50;99.90;;;;;;4879651;29;20096;-78
2023/09/26 00:11:22;;;;;;;11.50;2.75;;;13.50;99.90;;;;;;4849079;29;20045;-78
2023/09/26 00:13:49;;;;;;;11.80;2.50;;;13.40;99.90;;;;;;4852747;29;20045;-78
2023/09/26 00:16:15;;;;;;;14.32;3.25;;;13.50;99.90;;;;;;4866502;29;20057;-78
2023/09/26 00:18:42;;;;;;;15.30;2.58;;;13.50;99.90;;;;;;4877686;29;20075;-78
2023/09/26 00:21:10;;;;;;;13.13;2.70;;;13.50;99.90;;;;;;4867714;29;20106;-78
2023/09/26 00:23:36;;;;;;;14.27;2.63;;;13.50;99.90;;;;;;4882204;29;20051;-78
2023/09/26 00:26:04;;;;;;;14.52;2.80;;;13.50;99.90;;;;;;4886637;29;20055;-78
2023/09/26 00:28:30;;;;;;;15.65;2.65;;;13.60;99.90;;;;;;4874103;29;20132;-78
2023/09/26 00:30:56;;;;;;;12.85;2.58;;;13.50;99.90;;;;;;4867507;29;20068;-78
2023/09/26 00:33:22;;;;;;;10.13;2.67;;;13.50;99.90;;;;;;4868004;29;20034;-78
2023/09/26 00:35:48;;;;;;;12.50;2.92;;;13.50;99.90;;;;;;4865356;29;20041;-78
2023/09/26 00:38:13;;;;;;;9.70;2.28;;;13.50;99.90;;;;;;4875785;29;20033;-78
2023/09/26 00:40:41;;;;;;;11.55;2.33;;;13.40;99.90;;;;;;4870367;29;20572;-78
2023/09/26 00:43:07;;;;;;;8.60;2.38;;;13.30;99.90;;;;;;4885889;29;20379;-79
2023/09/26 00:45:33;;;;;;;14.65;3.42;;;13.20;99.90;;;;;;4885491;29;20041;-78
2023/09/26 00:47:59;;;;;;;17.73;3.67;;;13.20;99.90;;;;;;4867629;29;20037;-78
2023/09/26 00:50:25;;;;;;;15.40;4.28;;;13.10;99.90;;;;;;4865848;29;20120;-78
2023/09/26 00:52:53;;;;;;;10.98;3.97;;;13.10;99.90;;;;;;4868607;29;20144;-78
2023/09/26 00:55:22;;;;;;;13.90;3.20;;;13.10;99.90;;;;;;4865720;29;20539;-78
2023/09/26 00:57:47;;;;;;;11.20;2.80;;;13.00;99.90;;;;;;4868791;29;20081;-78
2023/09/26 01:00:16;;;;;;;9.15;2.63;;;13.10;99.90;;;;;;4862924;29;20049;-78
2023/09/26 01:02:43;;;;;;;4.22;2.35;;;13.00;99.90;;;;;;4861118;29;20025;-77
2023/09/26 01:05:09;;;;;;;7.32;2.30;;;13.00;99.90;;;;;;4868692;29;20068;-77
2023/09/26 01:07:35;;;;;;;7.93;2.75;;;13.00;99.90;;;;;;4878850;29;20024;-78
2023/09/26 01:10:08;;;;;;;9.48;2.28;;;13.00;99.90;;;;;;4882883;29;20777;-78
2023/09/26 01:12:34;;;;;;;7.18;2.50;;;13.00;99.90;;;;;;4865417;29;20040;-78
2023/09/26 01:15:00;;;;;;;7.57;2.33;;;13.00;99.90;;;;;;4870368;29;20048;-78
2023/09/26 01:17:30;;;;;;;11.23;2.33;;;12.90;99.90;;;;;;4863478;29;20554;-78
2023/09/26 01:19:56;;;;;;;7.70;2.70;;;12.90;99.90;;;;;;4889318;29;20524;-77
2023/09/26 01:22:30;;;;;;;7.97;2.30;;;12.90;99.90;;;;;;4880013;29;20065;-78
2023/09/26 01:24:56;;;;;;;6.75;2.13;;;12.80;99.90;;;;;;4885575;29;20533;-78
2023/09/26 01:27:22;;;;;;;9.40;2.22;;;12.80;99.90;;;;;;4885983;29;20267;-78
2023/09/26 01:29:48;;;;;;;7.97;2.13;;;12.80;99.90;;;;;;4867277;29;20140;-78
2023/09/26 01:32:13;;;;;;;11.95;2.67;;;12.70;99.90;;;;;;4872597;29;20085;-78
2023/09/26 01:34:39;;;;;;;10.23;2.55;;;12.70;99.90;;;;;;4861002;29;20041;-78
2023/09/26 01:37:06;;;;;;;10.63;2.40;;;12.70;99.90;;;;;;4860707;29;20047;-78
2023/09/26 01:39:32;;;;;;;8.57;2.50;;;12.60;99.90;;;;;;4866538;29;20048;-79
2023/09/26 01:41:58;;;;;;;9.90;2.38;;;12.60;99.90;;;;;;4862458;29;20052;-79
2023/09/26 01:44:23;;;;;;;7.90;1.80;;;12.60;99.90;;;;;;4868610;29;20223;-78
2023/09/26 01:46:49;;;;;;;8.27;2.25;;;12.60;99.90;;;;;;4870871;29;20024;-77
2023/09/26 01:49:15;;;;;;;12.43;2.60;;;12.60;99.90;;;;;;4868910;29;20080;-79
2023/09/26 01:51:40;;;;;;;9.02;2.38;;;12.70;99.90;;;;;;4868609;29;20036;-79
2023/09/26 01:54:06;;;;;;;12.15;3.70;;;12.70;99.90;;;;;;4875536;29;20033;-79
2023/09/26 01:56:32;;;;;;;7.47;3.05;;;12.80;99.90;;;;;;4869849;29;20044;-79
2023/09/26 01:58:58;;;;;;;7.90;3.25;;;12.80;99.90;;;;;;4873510;29;20060;-77
2023/09/26 02:01:24;;;;;;;12.82;3.00;;;12.90;99.90;;;;;;4868144;29;20108;-77
2023/09/26 02:03:49;;;;;;;10.27;2.33;;;12.90;99.90;;;;;;4860054;29;20145;-77
2023/09/26 02:06:15;;;;;;;7.03;2.40;;;12.90;99.90;;;;;;4868094;29;20499;-77
2023/09/26 02:08:41;;;;;;;11.95;2.90;;;13.00;99.90;;;;;;4879514;29;20044;-77
2023/09/26 02:11:06;;;;;;;6.55;2.08;;;13.00;99.90;;;;;;4869233;29;20043;-78
2023/09/26 02:13:32;;;;;;;7.20;2.30;;;13.00;99.90;;;;;;4872120;29;20032;-77
2023/09/26 02:15:58;;;;;;;8.25;2.60;;;13.00;99.90;;;;;;4868900;29;20376;-78
2023/09/26 02:18:24;;;;;;;9.68;2.40;;;13.10;99.90;;;;;;4882708;29;20037;-76
2023/09/26 02:20:50;;;;;;;9.15;3.13;;;13.10;99.90;;;;;;4866688;29;20078;-76
2023/09/26 02:23:16;;;;;;;10.25;3.17;;;13.10;99.90;;;;;;4877945;29;20044;-77
2023/09/26 02:25:50;;;;;;;9.77;2.67;;;13.10;99.90;;;;;;4886170;29;20040;-77
2023/09/26 02:28:16;;;;;;;9.15;3.15;;;13.10;99.90;;;;;;4868543;29;20044;-77
2023/09/26 02:30:41;;;;;;;9.27;4.30;;;13.10;99.90;;;;;;4868444;29;20056;-77
2023/09/26 02:33:07;;;;;;;14.80;5.63;;;13.10;99.90;;;;;;4867283;29;20025;-77
2023/09/26 02:35:33;;;;;;;17.50;8.00;;;13.10;99.90;;;;;;4874557;29;20037;-78
2023/09/26 02:37:58;;;;;;;48.20;22.77;;;13.20;99.90;;;;;;4880521;29;20049;-78
2023/09/26 02:40:24;;;;;;;52.38;24.88;;;13.20;99.90;;;;;;4886129;29;20033;-77
2023/09/26 02:42:50;;;;;;;32.35;14.38;;;13.10;99.90;;;;;;4880059;29;20037;-77
2023/09/26 02:45:15;;;;;;;30.88;14.02;;;13.20;99.90;;;;;;4868293;29;20033;-77
2023/09/26 02:47:42;;;;;;;26.42;9.65;;;13.20;99.90;;;;;;4852621;29;20025;-77
2023/09/26 02:50:08;;;;;;;17.17;7.57;;;13.20;99.90;;;;;;4862611;29;20100;-77
2023/09/26 02:52:34;;;;;;;15.05;6.28;;;13.20;99.90;;;;;;4866974;29;20033;-76
2023/09/26 02:55:01;;;;;;;12.55;4.60;;;13.20;99.90;;;;;;4869079;29;20618;-76
2023/09/26 02:57:26;;;;;;;9.73;3.47;;;13.30;99.90;;;;;;4867841;29;20037;-78
2023/09/26 02:59:52;;;;;;;14.45;3.20;;;13.30;99.90;;;;;;4875156;29;20402;-77
2023/09/26 03:02:18;;;;;;;10.15;3.30;;;13.40;99.90;;;;;;4869628;29;20564;-77
2023/09/26 03:04:48;;;;;;;10.73;3.17;;;13.40;99.90;;;;;;4868448;29;20048;-76
2023/09/26 03:07:14;;;;;;;11.27;3.17;;;13.40;99.90;;;;;;4874696;29;20467;-78
2023/09/26 03:09:40;;;;;;;11.43;3.67;;;13.40;99.90;;;;;;4882919;29;20041;-77
2023/09/26 03:12:06;;;;;;;9.23;2.97;;;13.40;99.90;;;;;;4852805;29;20044;-76
2023/09/26 03:14:32;;;;;;;13.57;3.45;;;13.50;99.90;;;;;;4862720;29;20036;-77
2023/09/26 03:16:58;;;;;;;8.10;3.72;;;13.50;99.90;;;;;;4867027;29;20029;-77
2023/09/26 03:19:23;;;;;;;12.73;3.30;;;13.50;99.90;;;;;;4865374;29;20385;-77
2023/09/26 03:21:52;;;;;;;7.88;3.10;;;13.60;99.90;;;;;;4867607;29;20053;-77
2023/09/26 03:24:19;;;;;;;7.50;2.90;;;13.60;99.90;;;;;;4871218;29;20061;-78
2023/09/26 03:26:45;;;;;;;15.50;5.60;;;13.60;99.90;;;;;;4895589;29;20032;-77
2023/09/26 03:29:11;;;;;;;15.77;5.07;;;13.60;99.90;;;;;;4867930;29;20033;-77
2023/09/26 03:31:40;;;;;;;13.63;3.67;;;13.60;99.90;;;;;;4881595;29;20119;-77
2023/09/26 03:34:06;;;;;;;15.65;3.50;;;13.60;99.90;;;;;;4879286;29;20509;-76
2023/09/26 03:36:32;;;;;;;10.73;3.38;;;13.60;99.90;;;;;;4869116;29;20107;-77
2023/09/26 03:38:58;;;;;;;16.35;3.47;;;13.70;99.90;;;;;;4868543;29;20877;-77
2023/09/26 03:41:23;;;;;;;10.10;3.13;;;13.70;99.90;;;;;;4873007;29;20068;-77
2023/09/26 03:43:49;;;;;;;9.02;2.78;;;13.80;99.90;;;;;;4881079;29;20041;-76
2023/09/26 03:46:15;;;;;;;12.52;3.40;;;13.80;99.90;;;;;;4859218;29;20076;-77
2023/09/26 03:48:40;;;;;;;13.93;3.42;;;13.70;99.90;;;;;;4861311;29;20039;-77
2023/09/26 03:51:13;;;;;;;12.18;3.50;;;13.70;99.90;;;;;;4865935;29;20033;-77
2023/09/26 03:53:40;;;;;;;15.30;3.55;;;13.60;99.90;;;;;;4868638;29;20044;-77
2023/09/26 03:56:06;;;;;;;12.00;3.78;;;13.70;99.90;;;;;;4872150;29;20043;-77
2023/09/26 03:58:32;;;;;;;16.33;3.70;;;13.70;99.90;;;;;;4871272;29;20044;-78
2023/09/26 04:01:15;;;;;;;16.75;3.75;;;13.80;99.90;;;;;;4867026;29;20539;-78
2023/09/26 04:03:44;;;;;;;13.43;3.40;;;13.80;99.90;;;;;;4851614;29;20033;-77
2023/09/26 04:06:09;;;;;;;14.60;3.80;;;13.90;99.90;;;;;;4868253;29;20032;-78
2023/09/26 04:08:35;;;;;;;16.52;4.13;;;14.00;99.90;;;;;;4883918;29;20100;-76
2023/09/26 04:11:01;;;;;;;20.52;3.90;;;14.10;99.90;;;;;;4881078;29;20108;-77
2023/09/26 04:13:26;;;;;;;20.70;4.28;;;14.20;99.90;;;;;;4863908;29;20038;-77
2023/09/26 04:15:55;;;;;;;15.88;5.07;;;14.30;99.90;;;;;;4854188;29;20029;-78
2023/09/26 04:18:22;;;;;;;13.90;4.22;;;14.30;99.90;;;;;;4860318;29;20068;-77
2023/09/26 04:20:49;;;;;;;17.83;4.70;;;14.40;99.90;;;;;;4850987;29;20075;-77
2023/09/26 04:23:15;;;;;;;13.45;4.03;;;14.40;99.90;;;;;;4881968;29;20063;-77
2023/09/26 04:25:40;;;;;;;18.60;4.40;;;14.50;99.90;;;;;;4884276;29;20088;-76
2023/09/26 04:28:06;;;;;;;14.32;4.40;;;14.60;99.90;;;;;;4868580;29;20112;-77
2023/09/26 04:30:39;;;;;;;15.20;4.18;;;14.70;99.90;;;;;;4866191;29;20386;-77
2023/09/26 04:33:08;;;;;;;13.82;3.90;;;14.70;99.90;;;;;;4866565;29;20029;-78
2023/09/26 04:35:34;;;;;;;15.57;4.50;;;14.80;99.90;;;;;;4869078;29;20275;-76
2023/09/26 04:38:01;;;;;;;14.63;4.70;;;14.90;99.90;;;;;;4868622;29;20044;-76
2023/09/26 04:40:26;;;;;;;16.67;5.82;;;14.90;99.90;;;;;;4869845;29;20110;-76
2023/09/26 04:42:52;;;;;;;17.67;5.13;;;14.90;99.90;;;;;;4858603;29;20576;-77
2023/09/26 04:45:17;;;;;;;24.58;5.75;;;15.00;99.90;;;;;;4867241;29;20041;-77
2023/09/26 04:47:43;;;;;;;15.63;4.32;;;15.00;99.90;;;;;;4882996;29;20056;-76
2023/09/26 04:50:09;;;;;;;18.42;5.13;;;15.00;99.90;;;;;;4849271;29;20107;-78
2023/09/26 04:52:36;;;;;;;18.45;4.50;;;15.00;99.90;;;;;;4871785;29;20479;-78
2023/09/26 04:55:01;;;;;;;14.05;4.32;;;15.00;99.90;;;;;;4875285;29;20408;-77
2023/09/26 04:57:27;;;;;;;14.48;4.45;;;15.00;99.90;;;;;;4887511;29;20036;-77
2023/09/26 04:59:54;;;;;;;17.05;4.97;;;15.10;99.90;;;;;;4871383;29;20404;-78
2023/09/26 05:02:19;;;;;;;17.27;4.72;;;15.10;99.90;;;;;;4871428;29;20101;-77
2023/09/26 05:04:48;;;;;;;20.63;4.65;;;15.10;99.90;;;;;;4871413;29;20033;-78
2023/09/26 05:07:14;;;;;;;21.60;4.72;;;15.20;99.90;;;;;;4875962;29;20047;-77
2023/09/26 05:09:39;;;;;;;16.45;4.22;;;15.20;99.90;;;;;;4877948;29;20389;-77
2023/09/26 05:12:05;;;;;;;23.85;4.90;;;15.30;99.90;;;;;;4852846;29;20097;-77
2023/09/26 05:14:31;;;;;;;13.13;4.10;;;15.40;99.90;;;;;;4877359;29;20579;-76
2023/09/26 05:16:56;;;;;;;11.57;4.82;;;15.40;99.90;;;;;;4880697;29;20096;-77
2023/09/26 05:19:22;;;;;;;23.48;5.05;;;15.40;99.90;;;;;;4878699;29;20562;-77
2023/09/26 05:21:47;;;;;;;14.63;4.30;;;15.50;99.90;;;;;;4871766;29;20049;-77
2023/09/26 05:24:13;;;;;;;21.20;5.07;;;15.60;99.90;;;;;;4872642;29;20124;-78
2023/09/26 05:26:38;;;;;;;17.08;5.32;;;15.70;99.90;;;;;;4882504;29;20052;-76
2023/09/26 05:29:04;;;;;;;14.80;5.22;;;15.70;99.90;;;;;;4869526;29;20035;-76
2023/09/26 05:31:31;;;;;;;13.82;5.03;;;15.80;99.90;;;;;;4866510;29;20051;-77
2023/09/26 05:33:58;;;;;;;15.80;5.13;;;15.80;99.90;;;;;;4879715;29;20033;-77
2023/09/26 05:36:23;;;;;;;14.50;5.00;;;15.90;99.90;;;;;;4886130;29;20546;-76
2023/09/26 05:38:49;;;;;;;17.42;4.88;;;15.90;99.90;;;;;;4874221;29;20139;-76
2023/09/26 05:41:15;;;;;;;19.75;5.22;;;15.90;99.90;;;;;;4883383;29;20048;-76
2023/09/26 05:43:40;;;;;;;19.00;5.32;;;15.90;99.90;;;;;;4874752;29;20029;-77
2023/09/26 05:46:06;;;;;;;17.65;5.63;;;15.90;99.90;;;;;;4869763;29;20053;-77
2023/09/26 05:48:32;;;;;;;18.60;5.82;;;15.90;99.90;;;;;;4864757;29;20473;-76
2023/09/26 05:51:03;;;;;;;17.92;5.70;;;15.90;99.90;;;;;;4879315;29;20491;-77
2023/09/26 05:53:29;;;;;;;16.83;5.80;;;16.00;99.90;;;;;;4869611;29;20033;-77
2023/09/26 05:55:55;;;;;;;21.67;6.50;;;16.10;99.90;;;;;;4877537;29;20077;-78
2023/09/26 05:58:21;;;;;;;25.15;6.35;;;16.10;99.90;;;;;;4887568;29;20131;-77
2023/09/26 06:00:46;;;;;;;16.08;5.60;;;16.10;99.90;;;;;;4869460;29;20055;-77
2023/09/26 06:03:14;;;;;;;13.60;5.43;;;16.10;99.90;;;;;;4869297;29;20029;-77
2023/09/26 06:05:40;;;;;;;15.77;5.65;;;16.20;99.90;;;;;;4869820;29;20941;-78
2023/09/26 06:08:05;;;;;;;18.80;5.57;;;16.20;99.90;;;;;;4860362;29;20061;-77
2023/09/26 06:10:31;;;;;;;17.73;5.35;;;16.20;99.90;;;;;;4879544;29;20040;-76
2023/09/26 06:12:57;;;;;;;14.30;5.30;;;16.10;99.90;;;;;;4873231;29;20036;-77
2023/09/26 06:15:22;;;;;;;12.30;5.70;;;16.20;99.90;;;;;;4875949;29;20058;-77
2023/09/26 06:17:48;;;;;;;18.05;6.30;;;16.20;99.90;;;;;;4874561;29;20040;-76
2023/09/26 06:20:14;;;;;;;14.23;5.28;;;16.20;99.90;;;;;;4869028;29;20060;-77
2023/09/26 06:22:40;;;;;;;17.08;5.70;;;16.30;99.90;;;;;;4884146;29;20033;-77
2023/09/26 06:25:06;;;;;;;15.55;5.78;;;16.30;99.90;;;;;;4878665;29;20077;-77
2023/09/26 06:27:35;;;;;;;13.18;5.20;;;16.40;99.90;;;;;;4871044;29;20025;-77
2023/09/26 06:30:02;;;;;;;15.10;5.03;;;16.40;99.90;;;;;;4865951;29;20040;-77
2023/09/26 06:32:28;;;;;;;16.35;5.50;;;16.50;99.90;;;;;;4863835;29;20542;-78
2023/09/26 06:34:58;;;;;;;11.93;6.78;;;16.50;99.90;;;;;;4869835;29;20037;-77
2023/09/26 06:37:23;;;;;;;14.57;6.13;;;16.60;99.90;;;;;;4873308;29;20033;-77
2023/09/26 06:39:49;;;;;;;14.63;7.30;;;16.60;99.90;;;;;;4873783;29;20036;-77
2023/09/26 06:42:14;;;;;;;10.32;7.70;;;16.70;99.90;;;;;;4874552;29;20033;-77
2023/09/26 06:44:40;;;;;;;12.15;6.05;;;16.70;99.90;;;;;;4884401;29;20055;-77
2023/09/26 06:47:06;;;;;;;13.50;5.70;;;16.80;99.90;;;;;;4877844;29;20033;-78
2023/09/26 06:49:33;;;;;;;15.30;5.70;;;16.80;99.90;;;;;;4868981;29;20914;-77
2023/09/26 06:51:59;;;;;;;16.08;5.30;;;16.90;99.90;;;;;;4881171;29;20105;-77
2023/09/26 06:54:24;;;;;;;14.75;5.10;;;17.00;99.90;;;;;;4870201;29;20068;-77
2023/09/26 06:56:51;;;;;;;14.60;5.00;;;17.10;99.90;;;;;;4860358;29;20104;-77
2023/09/26 06:59:16;;;;;;;11.80;5.28;;;17.10;99.90;;;;;;4864911;29;20037;-77
2023/09/26 07:01:43;;;;;;;11.10;4.78;;;17.20;99.90;;;;;;4856512;29;20024;-77
2023/09/26 07:04:14;;;;;;;13.27;4.97;;;17.30;99.90;;;;;;4872591;29;20120;-78
2023/09/26 07:06:40;;;;;;;16.77;4.93;;;17.40;99.90;;;;;;4878689;29;20037;-76
2023/09/26 07:09:07;;;;;;;12.30;4.97;;;17.50;99.90;;;;;;4870102;29;20216;-77
2023/09/26 07:11:33;;;;;;;15.98;5.55;;;17.50;99.90;;;;;;4866249;29;20032;-77
2023/09/26 07:13:59;;;;;;;18.27;5.80;;;17.60;99.90;;;;;;4872959;29;20044;-78
2023/09/26 07:16:25;;;;;;;12.45;4.80;;;17.70;99.90;;;;;;4877876;29;20020;-77
2023/09/26 07:18:51;;;;;;;14.13;4.10;;;17.90;99.90;;;;;;4872251;29;20443;-77
2023/09/26 07:21:16;;;;;;;13.73;5.07;;;18.00;99.90;;;;;;4868918;29;20229;-77
2023/09/26 07:23:42;;;;;;;13.00;4.22;;;18.20;99.90;;;;;;4867843;29;20060;-78
2023/09/26 07:26:14;;;;;;;7.00;3.90;;;18.40;99.90;;;;;;4868756;29;20044;-77
2023/09/26 07:28:41;;;;;;;8.75;3.83;;;18.60;99.90;;;;;;4874053;29;20067;-77
2023/09/26 07:31:09;;;;;;;9.32;3.30;;;18.80;99.90;;;;;;4874820;29;20036;-77
2023/09/26 07:33:35;;;;;;;11.18;3.38;;;19.00;99.90;;;;;;4853903;29;20117;-77
2023/09/26 07:36:00;;;;;;;13.40;3.95;;;19.20;99.90;;;;;;4875955;29;20112;-77
2023/09/26 07:38:26;;;;;;;11.77;4.13;;;19.20;99.90;;;;;;4874088;29;20068;-77
2023/09/26 07:40:52;;;;;;;9.13;3.47;;;19.20;99.90;;;;;;4869518;29;20131;-77
2023/09/26 07:43:17;;;;;;;8.68;3.22;;;19.10;99.90;;;;;;4872472;29;20110;-78
2023/09/26 07:45:43;;;;;;;12.05;3.78;;;19.00;99.90;;;;;;4866102;29;20056;-78
2023/09/26 07:48:09;;;;;;;10.15;3.80;;;18.90;99.90;;;;;;4879763;29;20036;-77
2023/09/26 07:50:34;;;;;;;11.82;3.60;;;19.00;99.90;;;;;;4873568;29;20075;-78
2023/09/26 07:53:01;;;;;;;9.65;2.97;;;19.00;99.90;;;;;;4885347;29;20422;-77
2023/09/26 07:55:28;;;;;;;10.60;4.03;;;19.20;99.90;;;;;;4868293;29;20049;-77
2023/09/26 07:57:54;;;;;;;10.30;3.47;;;19.40;99.90;;;;;;4852572;29;20124;-76
2023/09/26 08:00:19;;;;;;;10.65;3.40;;;19.50;99.90;;;;;;4860851;29;20463;-77
2023/09/26 08:02:45;;;;;;;10.52;3.72;;;19.60;99.90;;;;;;4873785;29;20124;-77
2023/09/26 08:05:11;;;;;;;6.88;3.50;;;19.80;99.90;;;;;;4865936;29;20075;-77
2023/09/26 08:07:38;;;;;;;10.57;2.83;;;20.20;99.90;;;;;;4863153;29;20468;-77
2023/09/26 08:10:04;;;;;;;11.60;2.83;;;20.80;99.90;;;;;;4858318;29;20041;-77
2023/09/26 08:12:31;;;;;;;8.02;2.40;;;22.20;99.90;;;;;;4860416;29;20104;-77
2023/09/26 08:14:58;;;;;;;6.40;2.42;;;23.70;99.90;;;;;;4851838;29;20459;-76
2023/09/26 08:17:24;;;;;;;9.15;2.50;;;24.30;99.90;;;;;;4856944;29;20492;-77
2023/09/26 08:19:50;;;;;;;9.60;2.33;;;24.10;99.90;;;;;;4859123;29;20037;-77
2023/09/26 08:22:15;;;;;;;6.78;2.38;;;23.70;99.90;;;;;;4857886;29;21068;-77
2023/09/26 08:24:41;;;;;;;8.88;2.50;;;23.40;99.90;;;;;;4863603;29;20468;-78
2023/09/26 08:27:06;;;;;;;6.88;1.98;;;23.10;99.90;;;;;;4864452;29;20042;-78
2023/09/26 08:29:32;;;;;;;7.15;2.28;;;22.70;99.90;;;;;;4863431;29;20120;-77
2023/09/26 08:31:58;;;;;;;5.80;2.47;;;22.50;99.90;;;;;;4861905;29;20033;-77
2023/09/26 08:34:24;;;;;;;6.38;2.28;;;22.10;99.90;;;;;;4864797;29;20683;-78
2023/09/26 08:36:49;;;;;;;6.50;2.17;;;21.80;99.90;;;;;;4864582;29;20051;-77
2023/09/26 08:39:15;;;;;;;7.82;2.03;;;21.80;99.90;;;;;;4861068;29;20402;-77
2023/09/26 08:41:47;;;;;;;8.63;2.22;;;21.70;99.90;;;;;;4868365;29;20049;-77
2023/09/26 08:44:13;;;;;;;12.48;2.42;;;21.70;99.90;;;;;;4871286;29;20036;-77
2023/09/26 08:46:44;;;;;;;10.23;2.28;;;21.70;99.90;;;;;;4871034;29;20066;-77
2023/09/26 08:49:10;;;;;;;;;;;21.50;99.90;;;;;;4877498;29;20033;-77
2023/09/26 08:51:36;;;;;;;11.55;2.58;;;21.40;99.90;;;;;;4874745;29;19983;-78
2023/09/26 08:54:02;;;;;;;6.97;2.63;;;21.30;99.90;;;;;;4876133;29;20033;-77
2023/09/26 08:56:37;;;;;;;8.73;2.40;;;21.20;99.90;;;;;;4846726;29;10000677;-77
2023/09/26 08:59:04;;;;;;;13.02;2.38;;;21.20;99.90;;;;;;4534591;29;10000199;-78
2023/09/26 09:01:30;;;;;;;6.57;2.30;;;21.20;99.90;;;;;;4193851;29;10000436;-77
2023/09/26 09:03:56;;;;;;;7.95;2.13;;;21.10;99.90;;;;;;4861865;29;20033;-77
2023/09/26 09:06:22;;;;;;;8.63;2.55;;;21.00;99.90;;;;;;4865436;29;20096;-77
2023/09/26 09:08:48;;;;;;;10.07;2.58;;;20.90;99.90;;;;;;4865923;29;20045;-77
2023/09/26 09:11:13;;;;;;;7.28;2.10;;;20.90;99.90;;;;;;4870338;29;20033;-77
2023/09/26 09:13:40;;;;;;;5.60;2.25;;;20.80;99.90;;;;;;4867462;29;20033;-77
2023/09/26 09:16:15;;;;;;;6.57;2.05;;;20.80;99.90;;;;;;4863598;29;20051;-77
2023/09/26 09:18:43;;;;;;;8.38;2.30;;;20.80;99.90;;;;;;4884145;23;20083;-79
2023/09/26 09:21:32;;;;;;;13.18;2.15;;;20.80;99.90;;;;;;4864046;29;20040;-81
2023/09/26 09:24:07;;;;;;;9.05;2.50;;;21.20;99.90;;;;;;4855306;29;20036;-81
2023/09/26 09:26:37;;;;;;;5.18;2.15;;;21.80;99.90;;;;;;4867669;29;20037;-82
2023/09/26 09:29:19;;;;;;;10.27;2.33;;;22.20;99.90;;;;;;4870078;29;20037;-82
2023/09/26 09:31:45;;;;;;;7.32;2.47;;;22.30;99.90;;;;;;4872800;29;20056;-81
2023/09/26 09:34:12;;;;;;;6.07;1.73;;;22.30;99.90;;;;;;4872554;29;20109;-82
2023/09/26 09:36:40;;;;;;;5.20;2.05;;;22.20;99.90;;;;;;4877199;29;20029;-82
2023/09/26 09:39:09;;;;;;;7.32;2.10;;;22.20;99.90;;;;;;4869133;29;20687;-78
2023/09/26 09:41:38;;;;;;;5.28;2.00;;;22.10;99.90;;;;;;4858466;29;20033;-79
2023/09/26 09:44:04;;;;;;;7.50;2.20;;;22.10;99.90;;;;;;4861946;29;20109;-78
2023/09/26 09:46:34;;;;;;;5.78;2.15;;;22.30;99.90;;;;;;4865420;29;20057;-78
2023/09/26 09:49:01;;;;;;;7.40;2.05;;;22.50;99.90;;;;;;4869796;29;20040;-80
2023/09/26 09:51:27;;;;;;;7.63;2.28;;;22.60;99.90;;;;;;4873586;29;20037;-79
2023/09/26 09:53:54;;;;;;;8.43;2.30;;;23.20;99.90;;;;;;4872066;29;20036;-78
2023/09/26 09:56:24;;;;;;;6.82;1.85;;;23.60;99.90;;;;;;4872874;29;20036;-79
2023/09/26 09:58:51;;;;;;;7.68;2.20;;;23.80;99.90;;;;;;4869915;29;20029;-79
2023/09/26 10:01:20;;;;;;;7.45;2.40;;;24.00;99.90;;;;;;4851007;29;21041;-79
2023/09/26 10:03:50;;;;;;;7.95;2.30;;;24.30;99.90;;;;;;4864992;29;20045;-80
2023/09/26 10:06:16;;;;;;;9.48;2.40;;;24.50;99.90;;;;;;4849758;29;20041;-80
2023/09/26 10:08:43;;;;;;;7.93;2.60;;;25.10;99.90;;;;;;4851334;29;20522;-79
2023/09/26 10:11:09;;;;;;;7.28;2.35;;;25.70;99.90;;;;;;4861741;29;20125;-80
2023/09/26 10:13:35;;;;;;;7.60;2.05;;;25.70;99.90;;;;;;4871207;29;20048;-79
2023/09/26 10:16:03;;;;;;;6.40;2.40;;;25.00;99.90;;;;;;4867621;29;20352;-80
2023/09/26 10:18:29;;;;;;;10.20;2.80;;;24.70;99.90;;;;;;4853004;29;20244;-80
2023/09/26 10:20:55;;;;;;;8.73;2.38;;;24.10;99.90;;;;;;4866627;29;20399;-80
2023/09/26 10:23:22;;;;;;;7.57;2.17;;;23.50;99.90;;;;;;4860794;29;20041;-78
2023/09/26 10:25:47;;;;;;;7.97;2.50;;;23.40;99.90;;;;;;4866215;29;20057;-79
2023/09/26 10:28:16;;;;;;;8.23;2.53;;;23.20;99.90;;;;;;4870969;29;20505;-78
2023/09/26 10:30:45;;;;;;;8.70;2.03;;;23.10;99.90;;;;;;4871041;29;20037;-82
2023/09/26 10:33:12;;;;;;;8.07;2.60;;;22.90;99.90;;;;;;4869716;29;20088;-78
2023/09/26 10:35:44;;;;;;;10.80;2.70;;;23.00;99.90;;;;;;4874435;29;20033;-79
2023/09/26 10:38:12;;;;;;;8.27;2.22;;;23.20;99.90;;;;;;4874260;29;20025;-78
2023/09/26 10:40:38;;;;;;;9.57;2.65;;;24.00;99.90;;;;;;4869646;29;20562;-77
2023/09/26 10:43:04;;;;;;;5.32;1.95;;;25.50;99.90;;;;;;4867896;29;20112;-77
2023/09/26 10:45:30;;;;;;;5.05;2.03;;;26.90;99.90;;;;;;4874856;29;20132;-79
2023/09/26 10:47:55;;;;;;;8.00;1.90;;;27.80;99.90;;;;;;4870157;29;20033;-80
2023/09/26 10:50:24;;;;;;;8.23;2.35;;;28.80;99.90;;;;;;4877880;29;20437;-79
2023/09/26 10:52:50;;;;;;;6.03;2.13;;;28.50;99.90;;;;;;4874776;29;20047;-78
2023/09/26 10:55:17;;;;;;;8.23;2.25;;;27.70;99.90;;;;;;4873808;29;20028;-77
2023/09/26 10:57:44;;;;;;;7.60;1.80;;;26.90;99.90;;;;;;4873401;29;20124;-79
2023/09/26 11:00:12;;;;;;;8.38;2.20;;;26.40;99.90;;;;;;4872826;29;20039;-79
2023/09/26 11:02:38;;;;;;;7.35;2.17;;;26.20;99.90;;;;;;4859698;29;20060;-80
2023/09/26 11:05:11;;;;;;;6.93;1.95;;;26.30;99.90;;;;;;4879392;29;20111;-79
2023/09/26 11:07:37;;;;;;;4.72;1.88;;;26.60;99.90;;;;;;4868295;29;20120;-79
2023/09/26 11:10:04;;;;;;;6.07;1.88;;;26.80;99.90;;;;;;4869325;29;20045;-79
2023/09/26 11:12:31;;;;;;;7.20;1.90;;;26.60;99.90;;;;;;4855465;29;20068;-78
2023/09/26 11:14:59;;;;;;;5.20;1.92;;;26.60;99.90;;;;;;4518639;29;10000490;-78
2023/09/26 11:17:27;;;;;;;9.82;1.90;;;26.40;99.90;;;;;;4867765;29;20065;-79
2023/09/26 11:19:56;;;;;;;5.65;2.25;;;26.30;99.90;;;;;;4866108;29;20053;-78
2023/09/26 11:22:22;;;;;;;6.65;2.08;;;25.90;99.90;;;;;;4876614;29;20061;-78
2023/09/26 11:24:47;;;;;;;6.28;1.95;;;25.10;99.90;;;;;;4880117;29;20068;-78
2023/09/26 11:27:13;;;;;;;8.25;2.15;;;24.50;99.90;;;;;;4878987;29;20100;-79
2023/09/26 11:29:40;;;;;;;8.05;2.17;;;24.50;99.90;;;;;;4869155;29;20024;-78
2023/09/26 11:32:06;;;;;;;6.10;2.08;;;24.90;99.90;;;;;;4871171;29;20376;-78
2023/09/26 11:34:34;;;;;;;7.72;1.90;;;25.00;99.90;;;;;;4877538;29;20036;-80
2023/09/26 11:37:00;;;;;;;6.93;2.22;;;26.00;99.90;;;;;;4870318;29;20104;-79
2023/09/26 11:39:26;;;;;;;7.90;2.08;;;26.60;99.90;;;;;;4878006;29;20033;-78
2023/09/26 11:42:07;;;;;;;8.38;2.08;;;27.00;99.90;;;;;;4876903;29;20507;-79
2023/09/26 11:44:32;;;;;;;5.68;1.67;;;27.80;99.90;;;;;;4875191;29;20040;-79
2023/09/26 11:46:59;;;;;;;7.90;1.80;;;28.00;99.90;;;;;;4875915;29;20041;-79
2023/09/26 11:49:24;;;;;;;9.23;2.35;;;27.90;99.90;;;;;;4872120;29;20036;-81
2023/09/26 11:51:52;;;;;;;8.15;2.22;;;27.70;99.90;;;;;;4874252;29;20073;-79
2023/09/26 11:54:18;;;;;;;6.07;2.10;;;27.30;99.90;;;;;;4869622;29;20029;-80
2023/09/26 11:56:45;;;;;;;5.15;1.60;;;27.50;99.90;;;;;;4868683;29;20043;-79
2023/09/26 11:59:11;;;;;;;7.53;1.65;;;28.20;99.90;;;;;;4878746;29;20088;-79
2023/09/26 12:01:41;;;;;;;7.63;2.35;;;28.40;99.90;;;;;;4873098;29;20124;-79
2023/09/26 12:04:09;;;;;;;6.43;2.30;;;28.20;99.90;;;;;;4887928;29;20136;-80
2023/09/26 12:06:34;;;;;;;7.32;1.95;;;28.20;99.90;;;;;;4881714;29;20033;-79
2023/09/26 12:09:03;;;;;;;7.43;1.95;;;28.30;99.90;;;;;;4869261;29;20025;-79
2023/09/26 12:11:29;;;;;;;7.68;2.00;;;28.40;99.90;;;;;;4867890;29;20045;-78
2023/09/26 12:13:54;;;;;;;9.02;2.20;;;27.30;99.90;;;;;;4856732;29;20045;-81
2023/09/26 12:16:20;;;;;;;7.63;1.95;;;26.70;99.90;;;;;;4869223;29;20071;-79
2023/09/26 12:18:46;;;;;;;7.57;1.92;;;26.60;99.90;;;;;;4870506;29;20045;-78
2023/09/26 12:21:12;;;;;;;8.05;1.80;;;26.20;99.90;;;;;;4869164;29;20108;-80
2023/09/26 12:23:37;;;;;;;7.93;2.15;;;25.80;99.90;;;;;;4867170;29;20132;-79
2023/09/26 12:26:03;;;;;;;5.55;1.60;;;25.60;99.90;;;;;;4849807;29;20084;-79
2023/09/26 12:28:28;;;;;;;7.95;1.80;;;25.40;99.90;;;;;;4875890;29;20356;-79
2023/09/26 12:30:54;;;;;;;7.18;1.98;;;25.00;99.90;;;;;;4868920;29;20029;-78
2023/09/26 12:33:20;;;;;;;10.10;2.25;;;24.90;99.90;;;;;;4876739;29;20028;-76
2023/09/26 12:35:47;;;;;;;7.35;2.08;;;24.60;99.90;;;;;;4878603;29;20120;-80
2023/09/26 12:38:13;;;;;;;5.55;1.65;;;24.50;99.90;;;;;;4868040;29;20435;-80